Time;durP1;ratioP1;P1;durP2;ratioP2;P2;SDS_P1;SDS_P2;PMS_P1;PMS_P2;Temp;Humidity;BMP_temperature;BMP_pressure;BME280_temperature;BME280_humidity;BME280_pressure;Samples;Min_cycle;Max_cycle;Signal;HPM_P1;HPM_P2
2022/04/13 00:00:28;;;;;;;;;1.00;1.00;;;;;16.49;57.82;100647.75;4973926;28;46268;-58
2022/04/13 00:02:54;;;;;;;;;2.00;1.00;;;;;16.48;57.99;100650.56;4975137;27;45381;-59
2022/04/13 00:05:20;;;;;;;;;4.33;2.00;;;;;16.48;58.00;100654.09;4974707;28;45367;-58
2022/04/13 00:07:45;;;;;;;;;3.00;1.00;;;;;16.46;58.06;100648.00;4974718;28;45331;-61
2022/04/13 00:10:11;;;;;;;;;3.33;1.00;;;;;16.42;57.84;100641.19;4975037;28;45472;-58
2022/04/13 00:12:36;;;;;;;;;1.00;1.00;;;;;16.43;57.99;100656.31;4971208;28;45444;-59
2022/04/13 00:15:04;;;;;;;;;1.33;1.33;;;;;16.42;58.07;100662.66;4965574;28;45904;-56
2022/04/13 00:17:30;;;;;;;;;2.00;2.00;;;;;16.44;58.11;100670.59;4966433;28;45532;-57
2022/04/13 00:19:56;;;;;;;;;2.33;2.00;;;;;16.43;58.53;100660.81;4974687;28;45218;-58
2022/04/13 00:22:22;;;;;;;;;1.00;1.00;;;;;16.44;58.52;100670.59;4974419;28;45366;-58
2022/04/13 00:24:47;;;;;;;;;2.00;1.00;;;;;16.45;58.49;100669.59;4974120;27;46110;-57
2022/04/13 00:27:13;;;;;;;;;2.00;2.00;;;;;16.50;58.27;100675.44;4973600;28;45900;-57
2022/04/13 00:29:38;;;;;;;;;1.00;1.00;;;;;16.50;58.20;100673.63;4974852;28;45295;-58
2022/04/13 00:32:04;;;;;;;;;1.33;1.33;;;;;16.49;58.59;100682.66;4974378;27;45645;-56
2022/04/13 00:34:30;;;;;;;;;3.00;3.00;;;;;16.45;59.17;100683.03;4972614;28;45915;-57
2022/04/13 00:36:57;;;;;;;;;3.00;2.00;;;;;16.45;59.02;100677.66;4974122;28;45465;-56
2022/04/13 00:39:23;;;;;;;;;2.67;2.67;;;;;16.43;59.29;100685.84;4974178;28;45287;-58
2022/04/13 00:41:58;;;;;;;;;2.00;2.00;;;;;16.47;59.03;100692.66;4974677;28;45307;-57
2022/04/13 00:44:26;;;;;;;;;2.00;2.00;;;;;16.49;59.02;100698.75;4969638;28;45478;-55
2022/04/13 00:46:51;;;;;;;;;2.00;2.00;;;;;16.55;58.77;100689.38;4972636;28;45650;-58
2022/04/13 00:49:17;;;;;;;;;3.33;2.33;;;;;16.46;58.41;100674.84;4976097;28;45198;-59
2022/04/13 00:51:42;;;;;;;;;4.00;2.00;;;;;16.53;58.71;100675.19;4974678;28;45510;-56
2022/04/13 00:54:09;;;;;;;;;2.00;2.00;;;;;16.56;58.68;100661.56;4971655;28;45592;-55
2022/04/13 00:56:36;;;;;;;;;2.00;2.00;;;;;16.59;58.55;100661.31;4961790;28;45524;-56
2022/04/13 00:59:09;;;;;;;;;2.00;2.00;;;;;16.60;58.80;100662.16;4977555;28;45456;-56
2022/04/13 01:01:37;;;;;;;;;3.00;3.00;;;;;16.55;58.73;100656.31;4966175;28;45576;-57
2022/04/13 01:04:03;;;;;;;;;3.00;1.00;;;;;16.51;58.74;100650.31;4972367;28;47320;-56
2022/04/13 01:06:30;;;;;;;;;1.00;1.00;;;;;16.58;58.95;100664.97;4976741;28;45282;-57
2022/04/13 01:08:55;;;;;;;;;3.00;3.00;;;;;16.53;58.96;100659.09;5034508;28;45289;-56
2022/04/13 01:11:21;;;;;;;;;3.00;1.33;;;;;16.50;59.25;100676.31;4991959;27;45243;-55
2022/04/13 01:13:47;;;;;;;;;2.33;2.00;;;;;16.39;59.16;100662.88;4972936;28;45514;-56
2022/04/13 01:16:13;;;;;;;;;2.00;2.00;;;;;16.44;59.28;100673.28;4972300;28;45337;-56
2022/04/13 01:18:38;;;;;;;;;4.00;1.00;;;;;16.39;59.28;100665.56;4973168;28;45313;-57
2022/04/13 01:21:05;;;;;;;;;1.33;1.33;;;;;16.42;59.33;100684.13;4988172;28;45696;-57
2022/04/13 01:23:31;;;;;;;;;2.00;2.00;;;;;16.42;59.35;100684.13;4974080;28;45935;-55
2022/04/13 01:25:56;;;;;;;;;3.00;2.00;;;;;16.44;59.28;100681.31;4973540;28;45358;-57
2022/04/13 01:28:23;;;;;;;;;3.00;3.00;;;;;16.26;59.39;100650.56;4972117;28;45347;-55
2022/04/13 01:30:48;;;;;;;;;2.67;2.67;;;;;16.30;59.07;100646.66;4974147;28;45541;-57
2022/04/13 01:33:15;;;;;;;;;2.00;2.00;;;;;16.47;58.89;100683.75;4971764;27;46260;-57
2022/04/13 01:35:40;;;;;;;;;2.00;2.00;;;;;16.48;59.33;100688.16;4972677;28;44757;-55
2022/04/13 01:38:06;;;;;;;;;1.67;1.67;;;;;16.52;59.21;100687.78;4973146;27;45347;-58
2022/04/13 01:40:32;;;;;;;;;2.00;2.00;;;;;16.52;59.33;100685.09;4972642;28;45653;-56
2022/04/13 01:42:57;;;;;;;;;3.33;3.00;;;;;16.57;59.40;100697.31;4999456;28;45988;-58
2022/04/13 01:45:23;;;;;;;;;2.00;2.00;;;;;16.51;59.29;100694.13;5052824;27;45504;-56
2022/04/13 01:47:51;;;;;;;;;4.00;4.00;;;;;16.54;59.29;100698.41;4972976;28;45653;-56
2022/04/13 01:50:19;;;;;;;;;5.33;2.00;;;;;16.56;59.45;100696.47;4973626;28;45724;-57
2022/04/13 01:52:46;;;;;;;;;3.00;3.00;;;;;16.57;59.17;100691.94;5039594;27;47050;-58
2022/04/13 01:55:12;;;;;;;;;2.00;2.00;;;;;16.58;59.12;100699.88;4973497;28;45346;-57
2022/04/13 01:57:38;;;;;;;;;2.00;2.00;;;;;16.58;59.44;100694.50;4974071;28;45403;-58
2022/04/13 02:00:06;;;;;;;;;1.67;1.00;;;;;16.56;60.04;100698.28;4972101;28;45464;-58
2022/04/13 02:02:32;;;;;;;;;4.00;3.00;;;;;16.53;59.35;100694.84;4999095;27;45463;-58
2022/04/13 02:04:57;;;;;;;;;3.00;3.00;;;;;16.50;59.72;100692.41;4974743;28;45370;-58
2022/04/13 02:07:23;;;;;;;;;2.67;2.67;;;;;16.48;59.50;100699.75;5010924;28;45399;-56
2022/04/13 02:09:48;;;;;;;;;4.00;2.00;;;;;16.52;59.79;100716.44;4970454;28;45374;-57
2022/04/13 02:12:13;;;;;;;;;3.00;2.00;;;;;16.55;59.74;100704.63;4997676;27;45425;-56
2022/04/13 02:14:39;;;;;;;;;4.33;2.00;;;;;16.56;59.54;100707.19;4968356;27;45451;-56
2022/04/13 02:17:05;;;;;;;;;2.33;2.33;;;;;16.52;59.79;100717.31;4972065;28;45517;-56
2022/04/13 02:19:30;;;;;;;;;2.00;2.00;;;;;16.51;59.70;100720.97;4982464;28;45348;-58
2022/04/13 02:21:55;;;;;;;;;2.00;2.00;;;;;16.48;59.87;100721.22;4972706;28;46162;-56
2022/04/13 02:24:21;;;;;;;;;6.00;3.67;;;;;16.51;59.78;100712.06;4972784;28;45323;-56
2022/04/13 02:26:46;;;;;;;;;6.00;3.00;;;;;16.47;59.93;100719.50;4978186;28;46777;-57
2022/04/13 02:29:11;;;;;;;;;3.00;3.00;;;;;16.49;60.03;100714.88;5019088;28;45272;-57
2022/04/13 02:31:37;;;;;;;;;5.00;2.00;;;;;16.55;60.37;100726.13;5031063;28;45914;-57
2022/04/13 02:34:04;;;;;;;;;3.00;3.00;;;;;16.52;60.03;100722.66;4964412;28;45310;-58
2022/04/13 02:36:32;;;;;;;;;2.33;2.33;;;;;16.53;60.11;100723.53;5021528;28;45544;-54
2022/04/13 02:38:58;;;;;;;;;5.00;3.67;;;;;16.49;60.33;100732.81;5019624;27;45366;-56
2022/04/13 02:41:23;;;;;;;;;3.33;2.67;;;;;16.43;60.55;100718.06;4972557;28;45285;-57
2022/04/13 02:43:49;;;;;;;;;5.67;2.00;;;;;16.49;60.99;100727.44;4975451;28;45464;-56
2022/04/13 02:46:14;;;;;;;;;2.00;1.67;;;;;16.47;60.93;100726.72;4976151;28;45329;-58
2022/04/13 02:48:39;;;;;;;;;3.00;3.00;;;;;16.43;61.30;100734.16;4973045;28;45393;-55
2022/04/13 02:51:05;;;;;;;;;2.00;2.00;;;;;16.38;61.29;100728.28;4972590;28;45371;-57
2022/04/13 02:53:31;;;;;;;;;3.00;3.00;;;;;16.31;61.85;100720.84;4975414;28;45407;-56
2022/04/13 02:55:57;;;;;;;;;3.00;3.00;;;;;16.27;62.36;100728.25;4975280;28;45433;-56
2022/04/13 02:58:23;;;;;;;;;4.67;2.00;;;;;16.28;62.36;100726.44;4974198;28;45380;-55
2022/04/13 03:00:48;;;;;;;;;4.00;3.00;;;;;16.23;62.85;100721.41;4975573;28;45485;-57
2022/04/13 03:03:14;;;;;;;;;3.00;2.00;;;;;16.15;62.81;100710.44;4974010;28;45521;-56
2022/04/13 03:05:39;;;;;;;;;2.00;2.00;;;;;16.18;63.42;100719.09;4975938;28;45427;-56
2022/04/13 03:08:05;;;;;;;;;3.33;3.33;;;;;16.15;64.30;100729.22;4975015;28;45389;-57
2022/04/13 03:10:31;;;;;;;;;3.00;3.00;;;;;16.05;63.89;100717.50;4978917;28;45465;-56
2022/04/13 03:12:56;;;;;;;;;3.00;3.00;;;;;16.02;64.39;100725.78;4973957;28;45460;-56
2022/04/13 03:15:23;;;;;;;;;3.67;3.67;;;;;16.05;64.23;100738.94;4975051;28;45462;-55
2022/04/13 03:17:49;;;;;;;;;4.00;3.00;;;;;16.01;64.66;100737.44;4970968;28;45496;-56
2022/04/13 03:20:14;;;;;;;;;5.33;3.00;;;;;15.98;65.34;100746.59;4969670;28;46636;-57
2022/04/13 03:22:39;;;;;;;;;3.33;3.00;;;;;15.88;65.18;100743.75;4978284;28;46917;-55
2022/04/13 03:25:05;;;;;;;;;3.00;3.00;;;;;15.90;65.48;100741.84;4975432;28;45300;-56
2022/04/13 03:27:31;;;;;;;;;5.33;4.33;;;;;15.90;65.53;100754.38;4966077;28;45588;-57
2022/04/13 03:29:56;;;;;;;;;4.67;3.00;;;;;15.87;65.65;100752.75;4974623;28;46236;-58
2022/04/13 03:32:22;;;;;;;;;3.33;3.00;;;;;15.83;65.83;100758.50;4975639;28;45728;-55
2022/04/13 03:34:47;;;;;;;;;4.33;3.00;;;;;15.82;66.42;100760.31;4975194;28;45702;-55
2022/04/13 03:37:13;;;;;;;;;3.00;3.00;;;;;15.77;66.50;100751.78;4975337;27;45227;-57
2022/04/13 03:39:38;;;;;;;;;7.00;4.67;;;;;15.75;67.42;100759.06;4973180;28;46555;-58
2022/04/13 03:42:04;;;;;;;;;5.67;4.00;;;;;15.76;67.05;100767.97;4973354;28;45548;-58
2022/04/13 03:44:30;;;;;;;;;6.67;4.67;;;;;15.79;67.76;100778.47;4973655;28;46032;-58
2022/04/13 03:46:55;;;;;;;;;6.00;3.33;;;;;15.74;68.10;100768.06;4975479;28;45519;-56
2022/04/13 03:49:21;;;;;;;;;4.00;4.00;;;;;15.73;68.11;100771.72;4975275;28;45502;-56
2022/04/13 03:51:46;;;;;;;;;4.00;4.00;;;;;15.68;69.07;100771.22;4984662;28;45487;-57
2022/04/13 03:54:12;;;;;;;;;4.00;4.00;;;;;15.64;69.65;100777.78;4975075;28;45466;-56
2022/04/13 03:56:37;;;;;;;;;4.00;3.00;;;;;15.48;70.77;100763.75;4975158;28;45417;-57
2022/04/13 03:59:09;;;;;;;;;6.00;3.00;;;;;15.47;70.16;100780.81;4974551;28;45500;-57
2022/04/13 04:01:35;;;;;;;;;5.67;5.00;;;;;15.43;70.89;100784.69;4973045;28;45584;-57
2022/04/13 04:04:01;;;;;;;;;6.33;6.33;;;;;15.38;70.92;100781.50;4974320;27;45504;-58
2022/04/13 04:06:26;;;;;;;;;2.00;2.00;;;;;15.25;70.35;100766.31;4975323;28;45540;-58
2022/04/13 04:08:52;;;;;;;;;5.33;5.33;;;;;15.38;70.36;100785.03;4974725;27;46306;-56
2022/04/13 04:11:18;;;;;;;;;4.33;4.33;;;;;15.35;71.45;100783.41;4978069;28;46463;-57
2022/04/13 04:13:43;;;;;;;;;5.00;5.00;;;;;15.38;72.04;100781.50;4973994;28;45448;-57
2022/04/13 04:16:09;;;;;;;;;4.33;4.33;;;;;15.43;72.28;100792.72;4967049;28;45660;-57
2022/04/13 04:18:35;;;;;;;;;5.00;4.00;;;;;15.45;71.32;100793.47;4965759;28;45993;-57
2022/04/13 04:21:00;;;;;;;;;6.00;6.00;;;;;15.42;72.22;100788.34;4973848;28;45402;-55
2022/04/13 04:23:26;;;;;;;;;4.33;4.33;;;;;15.43;71.55;100792.72;4974520;28;45332;-57
2022/04/13 04:25:51;;;;;;;;;4.33;4.33;;;;;15.41;71.95;100797.34;4974213;28;45584;-58
2022/04/13 04:28:17;;;;;;;;;9.33;7.33;;;;;15.37;72.09;100798.56;4973201;28;45384;-56
2022/04/13 04:30:43;;;;;;;;;8.33;6.33;;;;;15.33;71.80;100809.47;4971852;28;46628;-57
2022/04/13 04:33:12;;;;;;;;;4.00;4.00;;;;;15.28;71.86;100808.97;4971771;28;45492;-61
2022/04/13 04:35:39;;;;;;;;;7.00;5.00;;;;;15.24;71.76;100812.84;4975509;28;45655;-57
2022/04/13 04:38:05;;;;;;;;;6.67;5.00;;;;;15.06;71.59;100787.34;4978102;28;45537;-57
2022/04/13 04:40:31;;;;;;;;;6.00;6.00;;;;;15.19;71.65;100811.44;4977536;28;45535;-55
2022/04/13 04:42:58;;;;;;;;;5.33;4.33;;;;;15.14;71.70;100827.84;4975404;28;45476;-56
2022/04/13 04:45:24;;;;;;;;;6.67;5.33;;;;;15.13;72.70;100823.47;4975613;28;45622;-55
2022/04/13 04:47:50;;;;;;;;;5.00;5.00;;;;;15.17;72.82;100826.75;4973194;28;47291;-60
2022/04/13 04:50:21;;;;;;;;;4.00;4.00;;;;;15.12;72.59;100819.06;4974651;28;45754;-59
2022/04/13 04:52:47;;;;;;;;;8.33;6.33;;;;;15.12;74.09;100824.44;4973436;28;45486;-55
2022/04/13 04:55:17;;;;;;;;;9.00;5.33;;;;;15.05;72.78;100799.03;4973423;28;45530;-56
2022/04/13 04:57:43;;;;;;;;;7.67;5.00;;;;;15.15;72.61;100823.34;4974175;28;45498;-57
2022/04/13 05:00:19;;;;;;;;;5.33;3.33;;;;;15.13;72.21;100819.94;4974473;28;45350;-57
2022/04/13 05:02:49;;;;;;;;;5.33;4.67;;;;;15.17;72.82;100822.25;4973053;28;45430;-57
2022/04/13 05:05:15;;;;;;;;;8.00;7.33;;;;;15.16;72.58;100814.34;4981312;28;45450;-56
2022/04/13 05:07:41;;;;;;;;;6.33;6.33;;;;;15.15;72.57;100826.88;5016861;28;46278;-55
2022/04/13 05:10:07;;;;;;;;;6.33;6.33;;;;;15.14;73.19;100830.53;4992381;28;45435;-56
2022/04/13 05:12:44;;;;;;;;;9.33;6.00;;;;;15.11;72.96;100835.25;4973961;28;45400;-56
2022/04/13 05:15:10;;;;;;;;;6.00;5.00;;;;;15.16;72.90;100838.44;4972128;28;45396;-57
2022/04/13 05:17:37;;;;;;;;;4.67;4.67;;;;;15.17;72.18;100838.34;4973531;28;46188;-58
2022/04/13 05:20:07;;;;;;;;;6.00;6.00;;;;;15.15;72.60;100832.25;4976992;28;45268;-68
2022/04/13 05:22:32;;;;;;;;;7.33;7.33;;;;;15.10;72.25;100834.38;4986330;28;45833;-57
2022/04/13 05:25:16;;;;;;;;;4.67;4.67;;;;;15.07;72.14;100831.91;4974315;28;45808;-57
2022/04/13 05:27:43;;;;;;;;;6.00;4.67;;;;;15.17;72.52;100846.38;5003139;28;46683;-61
2022/04/13 05:30:11;;;;;;;;;6.00;5.00;;;;;15.11;72.04;100838.78;4973985;28;45348;-59
2022/04/13 05:32:59;;;;;;;;;10.00;5.67;;;;;15.13;72.12;100846.72;4974164;28;45342;-61
2022/04/13 05:35:25;;;;;;;;;9.33;8.00;;;;;15.14;72.40;100838.56;4963748;28;45524;-60
2022/04/13 05:37:51;;;;;;;;;10.67;7.67;;;;;15.15;73.34;100840.28;4973085;28;47301;-56
2022/04/13 05:40:17;;;;;;;;;9.33;8.33;;;;;15.10;72.40;100839.72;4973304;28;45493;-56
2022/04/13 05:42:43;;;;;;;;;9.00;6.00;;;;;15.14;73.43;100833.22;4973491;28;45330;-56
2022/04/13 05:45:09;;;;;;;;;7.67;6.33;;;;;15.02;74.21;100823.34;4973649;28;45624;-54
2022/04/13 05:47:35;;;;;;;;;7.33;7.33;;;;;15.05;74.48;100828.50;4972477;28;46201;-55
2022/04/13 05:50:01;;;;;;;;;8.67;8.67;;;;;15.10;74.42;100845.09;4972749;28;45480;-57
2022/04/13 05:52:27;;;;;;;;;10.67;9.00;;;;;15.10;74.80;100842.41;4974176;28;45295;-55
2022/04/13 05:54:53;;;;;;;;;6.00;6.00;;;;;15.12;75.61;100856.56;4972929;28;45269;-55
2022/04/13 05:57:18;;;;;;;;;11.33;10.00;;;;;15.08;74.80;100849.69;4973380;28;46071;-57
2022/04/13 05:59:44;;;;;;;;;13.67;10.67;;;;;15.10;74.45;100863.84;4972516;28;45224;-56
2022/04/13 06:02:09;;;;;;;;;10.67;10.33;;;;;15.09;74.08;100856.75;4973019;28;45534;-54
2022/04/13 06:04:35;;;;;;;;;10.00;9.00;;;;;15.16;74.45;100868.78;4973271;28;45321;-57
2022/04/13 06:07:00;;;;;;;;;14.00;9.33;;;;;15.18;74.42;100871.34;4971975;28;46200;-56
2022/04/13 06:09:26;;;;;;;;;11.00;9.00;;;;;15.18;74.06;100872.19;4971578;28;45564;-52
2022/04/13 06:11:52;;;;;;;;;10.67;9.00;;;;;15.20;73.08;100874.75;5018678;28;45361;-53
2022/04/13 06:14:17;;;;;;;;;11.00;9.00;;;;;15.16;74.40;100879.50;4975025;28;45352;-55
2022/04/13 06:16:43;;;;;;;;;10.00;9.00;;;;;15.19;74.27;100887.31;5005776;28;46265;-55
2022/04/13 06:19:10;;;;;;;;;10.00;6.33;;;;;15.18;74.63;100887.41;4981430;28;45549;-53
2022/04/13 06:21:35;;;;;;;;;9.33;9.33;;;;;15.19;73.75;100895.34;4970033;28;45497;-52
2022/04/13 06:24:01;;;;;;;;;10.67;10.67;;;;;15.17;73.74;100897.28;4972250;28;45430;-53
2022/04/13 06:26:26;;;;;;;;;11.00;9.67;;;;;15.21;73.80;100890.72;4975434;28;45912;-54
2022/04/13 06:28:52;;;;;;;;;9.67;9.67;;;;;15.23;73.80;100899.50;4976670;28;45485;-56
2022/04/13 06:31:21;;;;;;;;;9.00;9.00;;;;;15.26;74.03;100893.09;4972920;28;45255;-54
2022/04/13 06:33:48;;;;;;;;;12.33;12.00;;;;;15.23;79.41;100906.69;4974209;27;45577;-53
2022/04/13 06:36:14;;;;;;;;;14.00;12.33;;;;;15.27;75.95;100913.56;4974577;28;46699;-57
2022/04/13 06:38:40;;;;;;;;;18.00;12.67;;;;;15.13;74.52;100903.81;4975040;28;45368;-54
2022/04/13 06:41:10;;;;;;;;;26.00;22.33;;;;;15.20;74.58;100918.50;4976523;28;45508;-54
2022/04/13 06:43:35;;;;;;;;;13.67;11.00;;;;;15.21;75.90;100925.56;4975166;28;45433;-51
2022/04/13 06:46:01;;;;;;;;;16.33;13.33;;;;;15.22;76.42;100938.00;5077100;27;45527;-55
2022/04/13 06:48:26;;;;;;;;;15.33;14.67;;;;;15.23;75.31;100934.34;5045073;28;45762;-52
2022/04/13 06:50:52;;;;;;;;;17.00;12.67;;;;;15.19;76.30;100921.28;4975835;27;45375;-51
2022/04/13 06:53:18;;;;;;;;;14.67;12.67;;;;;15.25;75.58;100937.81;4960523;28;45460;-52
2022/04/13 06:55:45;;;;;;;;;12.67;11.33;;;;;15.23;75.04;100942.38;4956049;28;47150;-53
2022/04/13 06:58:10;;;;;;;;;11.67;10.00;;;;;15.29;75.45;100960.72;4954936;28;45358;-54
2022/04/13 07:00:36;;;;;;;;;12.00;12.00;;;;;15.27;74.69;100959.97;4957357;28;45347;-50
2022/04/13 07:03:02;;;;;;;;;8.67;8.00;;;;;15.28;74.23;100969.72;4956531;28;45235;-56
2022/04/13 07:05:28;;;;;;;;;15.00;11.67;;;;;15.30;74.37;100981.19;4957163;28;46282;-54
2022/04/13 07:07:57;;;;;;;;;11.00;9.67;;;;;15.30;74.19;100978.50;4974963;27;45429;-56
2022/04/13 07:10:23;;;;;;;;;10.33;9.00;;;;;15.31;75.14;100985.59;5013069;27;45391;-56
2022/04/13 07:12:48;;;;;;;;;10.67;9.67;;;;;15.07;78.20;100959.63;5002752;27;45537;-54
2022/04/13 07:15:17;;;;;;;;;10.67;10.33;;;;;15.32;77.81;100997.16;4963035;28;46201;-54
2022/04/13 07:17:44;;;;;;;;;12.33;10.67;;;;;15.32;75.23;101002.53;4960169;28;45833;-54
2022/04/13 07:20:10;;;;;;;;;11.33;11.00;;;;;15.24;74.95;100995.03;4998972;27;45318;-53
2022/04/13 07:22:51;;;;;;;;;12.00;12.00;;;;;15.29;75.41;101016.13;4985131;28;45623;-54
2022/04/13 07:25:17;;;;;;;;;17.33;13.00;;;;;15.30;75.44;101009.81;4954944;28;46219;-53
2022/04/13 07:27:44;;;;;;;;;12.67;9.33;;;;;15.30;75.51;101018.72;4957976;28;45772;-52
2022/04/13 07:30:10;;;;;;;;;11.33;8.67;;;;;15.28;75.29;101017.97;4967323;28;45459;-52
2022/04/13 07:32:36;;;;;;;;;14.33;14.33;;;;;15.25;76.69;101014.66;4976265;27;45565;-52
2022/04/13 07:35:05;;;;;;;;;13.67;12.33;;;;;15.29;76.68;101018.81;4975672;28;46370;-55
2022/04/13 07:37:33;;;;;;;;;13.00;12.67;;;;;15.27;77.60;101015.41;4972399;28;45250;-51
2022/04/13 07:39:59;;;;;;;;;15.67;13.67;;;;;15.30;76.72;101015.19;4992217;28;45462;-51
2022/04/13 07:42:26;;;;;;;;;18.67;15.00;;;;;15.27;76.81;101016.25;4973970;28;45232;-54
2022/04/13 07:44:52;;;;;;;;;14.67;13.00;;;;;15.35;77.12;101024.59;4974766;28;45559;-56
2022/04/13 07:47:19;;;;;;;;;17.00;15.33;;;;;15.41;76.90;101022.47;4973104;28;45429;-55
2022/04/13 07:49:46;;;;;;;;;16.33;15.00;;;;;15.47;76.65;101027.41;4970692;28;45476;-52
2022/04/13 07:52:12;;;;;;;;;17.00;15.00;;;;;15.49;76.88;101025.47;4975760;28;45545;-54
2022/04/13 07:54:37;;;;;;;;;16.67;14.67;;;;;15.48;76.65;101026.44;4964009;28;46357;-54
2022/04/13 07:57:03;;;;;;;;;18.33;16.00;;;;;15.51;77.92;101034.28;4963251;28;45358;-55
2022/04/13 07:59:29;;;;;;;;;17.00;13.00;;;;;15.47;77.96;101019.34;4974594;28;45498;-54
2022/04/13 08:01:54;;;;;;;;;18.00;16.00;;;;;15.50;78.35;101024.53;4968707;28;45508;-56
2022/04/13 08:04:20;;;;;;;;;16.67;16.00;;;;;15.48;78.10;101029.13;4955058;28;45986;-52
2022/04/13 08:06:46;;;;;;;;;19.67;18.67;;;;;15.48;78.05;101034.47;4962656;28;45571;-54
2022/04/13 08:09:11;;;;;;;;;20.33;16.67;;;;;15.45;78.20;101029.34;4957127;27;45376;-56
2022/04/13 08:11:37;;;;;;;;;26.33;20.67;;;;;15.48;77.80;101039.84;5061271;27;45335;-52
2022/04/13 08:14:02;;;;;;;;;17.00;17.00;;;;;15.42;78.15;101024.19;5029453;27;45403;-52
2022/04/13 08:16:28;;;;;;;;;15.67;13.67;;;;;15.47;79.01;101032.75;4954620;28;45490;-52
2022/04/13 08:18:53;;;;;;;;;18.67;17.67;;;;;15.51;77.94;101034.28;4973724;27;45454;-50
2022/04/13 08:21:19;;;;;;;;;18.00;18.00;;;;;15.50;77.98;101040.63;4986053;28;45424;-54
2022/04/13 08:23:44;;;;;;;;;19.33;17.67;;;;;15.47;77.39;101043.47;4972137;27;46329;-53
2022/04/13 08:26:12;;;;;;;;;20.67;18.67;;;;;15.41;78.61;101039.41;4958003;28;45371;-50
2022/04/13 08:28:38;;;;;;;;;19.33;18.33;;;;;15.39;77.73;101046.72;4974328;28;45259;-51
2022/04/13 08:31:04;;;;;;;;;26.33;24.33;;;;;15.41;78.17;101041.25;4974557;28;45165;-54
2022/04/13 08:33:30;;;;;;;;;23.00;21.00;;;;;15.45;77.94;101048.09;4974166;28;47493;-53
2022/04/13 08:35:56;;;;;;;;;21.00;19.33;;;;;15.38;77.29;101031.59;4968908;28;45523;-54
2022/04/13 08:38:22;;;;;;;;;27.33;25.00;;;;;15.42;77.73;101033.09;4991207;28;45483;-54
2022/04/13 08:41:02;;;;;;;;;15.33;15.33;;;;;15.43;77.49;101045.53;4961842;27;45432;-53
2022/04/13 08:43:56;;;;;;;;;19.00;19.00;;;;;15.46;78.31;101064.06;4954590;28;46314;-54
2022/04/13 08:46:28;;;;;;;;;18.33;17.00;;;;;15.49;76.91;101068.34;4953227;28;45381;-55
2022/04/13 08:48:56;;;;;;;;;23.33;18.33;;;;;15.56;77.69;101072.34;4954388;28;45455;-54
2022/04/13 08:51:24;;;;;;;;;22.00;20.00;;;;;15.63;78.30;101073.69;4954553;28;45518;-54
2022/04/13 08:54:28;;;;;;;;;29.00;26.33;;;;;15.60;77.77;101076.53;4977990;28;46131;-56
2022/04/13 08:56:57;;;;;;;;;22.67;21.67;;;;;15.64;77.90;101075.41;4971858;28;45194;-54
2022/04/13 08:59:56;;;;;;;;;21.00;18.67;;;;;15.71;76.54;101078.50;4954480;28;45446;-54
2022/04/13 09:02:58;;;;;;;;;13.67;13.67;;;;;15.80;74.89;101094.81;4954395;28;45515;-55
2022/04/13 09:05:29;;;;;;;;;21.00;19.00;;;;;15.74;75.50;101095.22;4952844;28;47076;-55
2022/04/13 09:08:16;;;;;;;;;29.33;19.67;;;;;15.76;75.56;101096.00;4961354;28;45404;-55
2022/04/13 09:10:43;;;;;;;;;19.00;19.00;;;;;15.77;75.22;101089.66;5025267;28;45306;-54
2022/04/13 09:13:10;;;;;;;;;16.00;16.00;;;;;15.87;74.40;101095.22;5057384;27;45561;-54
2022/04/13 09:15:39;;;;;;;;;20.67;18.67;;;;;15.86;73.99;101098.88;4954193;28;45492;-56
2022/04/13 09:18:07;;;;;;;;;19.00;15.00;;;;;15.83;74.03;101105.31;4954115;28;45311;-55
2022/04/13 09:20:32;;;;;;;;;16.00;16.00;;;;;15.82;74.66;101111.66;4954118;28;45374;-55
2022/04/13 09:22:59;;;;;;;;;17.33;17.33;;;;;15.76;74.62;101111.22;4953995;28;45555;-54
2022/04/13 09:25:27;;;;;;;;;18.67;18.00;;;;;15.79;74.73;101121.72;4954003;28;45577;-52
2022/04/13 09:27:53;;;;;;;;;16.00;14.67;;;;;15.79;74.48;101113.69;4984952;28;45517;-56
2022/04/13 09:30:19;;;;;;;;;14.00;13.00;;;;;15.87;75.30;101116.69;4968245;28;45375;-55
2022/04/13 09:32:45;;;;;;;;;18.67;14.67;;;;;15.90;75.40;101119.16;4964140;28;45589;-55
2022/04/13 09:35:11;;;;;;;;;15.33;13.00;;;;;15.92;74.69;101126.13;4991018;28;45537;-56
2022/04/13 09:37:37;;;;;;;;;15.67;15.33;;;;;15.91;75.42;101123.56;4986572;28;45554;-55
2022/04/13 09:40:02;;;;;;;;;14.00;14.00;;;;;15.91;74.96;101127.09;4973165;28;45334;-55
2022/04/13 09:42:28;;;;;;;;;16.33;14.00;;;;;15.89;74.83;101126.34;4973396;28;45343;-54
2022/04/13 09:45:01;;;;;;;;;21.67;16.00;;;;;15.89;75.31;101131.72;4973384;28;46140;-55
2022/04/13 09:47:34;;;;;;;;;16.33;16.33;;;;;15.88;75.12;101134.47;4967027;28;45433;-55
2022/04/13 09:50:01;;;;;;;;;13.33;10.00;;;;;15.92;73.96;101134.19;4960018;28;45387;-54
2022/04/13 09:52:39;;;;;;;;;17.67;14.00;;;;;15.94;73.71;101131.38;4973251;28;45570;-55
2022/04/13 09:55:05;;;;;;;;;13.33;12.00;;;;;15.99;73.21;101136.41;4973262;28;45386;-54
2022/04/13 09:57:31;;;;;;;;;11.33;10.00;;;;;16.00;73.98;101125.56;4973122;28;45251;-56
2022/04/13 10:00:00;;;;;;;;;12.33;12.00;;;;;16.05;72.78;101131.50;4973252;28;45255;-54
2022/04/13 10:02:40;;;;;;;;;12.33;9.67;;;;;16.05;71.90;101125.28;4976394;28;45508;-54
2022/04/13 10:05:27;;;;;;;;;13.00;11.00;;;;;16.10;72.67;101129.34;4965678;28;45394;-51
2022/04/13 10:08:10;;;;;;;;;14.00;11.67;;;;;16.16;73.21;101130.75;4954793;28;45257;-53
2022/04/13 10:10:39;;;;;;;;;11.67;9.67;;;;;16.18;71.95;101135.03;4963050;28;45774;-55
2022/04/13 10:13:05;;;;;;;;;12.00;11.67;;;;;16.21;72.70;101132.13;4995743;28;45499;-55
2022/04/13 10:15:30;;;;;;;;;10.33;8.33;;;;;16.17;72.37;101121.72;4995235;28;46136;-54
2022/04/13 10:18:00;;;;;;;;;11.00;11.00;;;;;16.29;71.97;101131.59;4995348;27;45911;-55
2022/04/13 10:20:46;;;;;;;;;11.00;11.00;;;;;16.27;72.19;101128.13;4995550;28;45323;-56
2022/04/13 10:23:12;;;;;;;;;18.00;13.67;;;;;16.22;73.48;101132.97;5006817;27;45320;-57
2022/04/13 10:25:38;;;;;;;;;12.67;11.00;;;;;16.23;72.45;101137.38;4974402;28;46735;-55
2022/04/13 10:28:03;;;;;;;;;15.00;12.00;;;;;16.22;71.53;101138.34;4975747;28;45762;-61
2022/04/13 10:30:37;;;;;;;;;14.00;14.00;;;;;16.23;72.13;101138.25;4991953;28;45479;-57
2022/04/13 10:33:04;;;;;;;;;13.67;13.00;;;;;16.29;71.57;101134.28;4995579;28;45567;-56
2022/04/13 10:35:32;;;;;;;;;13.33;13.00;;;;;16.32;73.07;101139.41;4995379;28;46153;-56
2022/04/13 10:37:58;;;;;;;;;16.33;13.67;;;;;16.35;72.60;101139.19;4997901;28;45360;-55
2022/04/13 10:40:25;;;;;;;;;14.00;12.33;;;;;16.38;71.42;101147.03;4956030;28;45273;-57
2022/04/13 10:42:52;;;;;;;;;14.33;13.67;;;;;16.35;71.61;101146.38;4956446;28;45491;-60
2022/04/13 10:45:18;;;;;;;;;18.67;16.00;;;;;16.28;71.41;101147.81;4955984;28;46050;-54
2022/04/13 10:47:52;;;;;;;;;13.00;13.00;;;;;16.24;71.11;101152.50;4982757;28;45378;-55
2022/04/13 10:50:31;;;;;;;;;10.67;10.00;;;;;16.19;70.71;101146.63;5053250;27;45378;-54
2022/04/13 10:52:56;;;;;;;;;13.00;11.33;;;;;16.26;70.80;101150.56;5002734;27;45500;-54
2022/04/13 10:55:23;;;;;;;;;9.00;9.00;;;;;16.18;69.89;101134.19;4973184;28;45515;-54
2022/04/13 10:57:52;;;;;;;;;13.00;13.00;;;;;16.29;70.34;101146.84;4968172;28;45549;-56
2022/04/13 11:00:20;;;;;;;;;15.67;14.00;;;;;16.32;71.40;101135.88;4954864;28;45932;-55
2022/04/13 11:02:54;;;;;;;;;16.00;13.00;;;;;16.35;70.90;101139.19;4954835;28;45685;-53
2022/04/13 11:05:25;;;;;;;;;14.00;14.00;;;;;16.52;70.56;101154.09;4965627;28;46899;-55
2022/04/13 11:08:25;;;;;;;;;14.67;13.00;;;;;16.56;70.68;101152.06;4975082;28;45406;-58
2022/04/13 11:10:52;;;;;;;;;10.00;9.00;;;;;16.56;69.69;101141.31;4990729;27;45721;-53
2022/04/13 11:13:19;;;;;;;;;12.00;11.00;;;;;16.58;69.19;101139.38;4961994;28;45491;-54
2022/04/13 11:15:47;;;;;;;;;13.00;11.33;;;;;16.62;69.21;101141.72;4955161;28;46160;-55
2022/04/13 11:18:16;;;;;;;;;11.67;11.67;;;;;16.55;69.58;101134.22;4954479;28;45374;-57
2022/04/13 11:21:07;;;;;;;;;11.67;10.00;;;;;16.62;69.46;101140.84;4957596;28;45359;-56